createdAt,value
2023-02-06T00:00:07.424Z,24.70
2023-02-06T00:01:07.454Z,26.30
2023-02-06T00:02:07.483Z,24.00
2023-02-06T00:03:07.417Z,25.50
2023-02-06T00:04:07.389Z,23.90
2023-02-06T00:05:07.397Z,24.10
2023-02-06T00:06:07.429Z,23.80
2023-02-06T00:07:07.387Z,23.70
2023-02-06T00:08:07.362Z,22.70
2023-02-06T00:09:07.347Z,24.20
2023-02-06T00:10:07.322Z,23.40
2023-02-06T00:11:07.380Z,25.00
2023-02-06T00:12:07.332Z,24.80
2023-02-06T00:13:07.315Z,25.00
2023-02-06T00:14:07.290Z,25.60
2023-02-06T00:15:07.282Z,25.40
2023-02-06T00:16:07.349Z,23.60
2023-02-06T00:17:07.353Z,23.50
2023-02-06T00:18:07.263Z,23.70
2023-02-06T00:19:07.250Z,24.90
2023-02-06T00:20:07.244Z,26.60
2023-02-06T00:21:07.222Z,26.40
2023-02-06T00:22:07.213Z,26.60
2023-02-06T00:23:07.231Z,27.10
2023-02-06T00:24:07.188Z,27.70
2023-02-06T00:25:07.178Z,26.80
2023-02-06T00:26:07.184Z,27.00
2023-02-06T00:27:07.166Z,26.70
2023-02-06T00:28:07.251Z,26.70
2023-02-06T00:29:07.143Z,27.20
2023-02-06T00:30:07.133Z,26.80
2023-02-06T00:31:07.228Z,27.20
2023-02-06T00:32:07.162Z,27.20
2023-02-06T00:33:07.147Z,26.10
2023-02-06T00:34:07.109Z,26.50
2023-02-06T00:35:07.097Z,27.00
2023-02-06T00:36:07.079Z,26.70
2023-02-06T00:37:07.082Z,25.80
2023-02-06T00:38:07.065Z,25.40
2023-02-06T00:39:07.057Z,25.80
2023-02-06T00:40:07.032Z,28.10
2023-02-06T00:41:07.033Z,27.00
2023-02-06T00:42:07.008Z,26.60
2023-02-06T00:43:07.046Z,26.20
2023-02-06T00:44:06.989Z,26.70
2023-02-06T00:45:06.994Z,26.70
2023-02-06T00:46:07.027Z,26.30
2023-02-06T00:47:06.969Z,27.70
2023-02-06T00:48:06.964Z,28.30
2023-02-06T00:49:06.984Z,27.70
2023-02-06T00:50:06.942Z,27.30
2023-02-06T00:51:06.936Z,26.60
2023-02-06T00:52:06.908Z,27.70
2023-02-06T00:53:06.938Z,27.40
2023-02-06T00:54:06.935Z,28.50
2023-02-06T00:55:06.887Z,26.40
2023-02-06T00:56:06.880Z,26.10
2023-02-06T00:57:06.861Z,26.40
2023-02-06T00:58:06.868Z,26.40
2023-02-06T00:59:06.844Z,26.10
2023-02-06T01:00:06.860Z,26.30
2023-02-06T01:01:06.817Z,25.60
2023-02-06T01:02:06.830Z,25.70
2023-02-06T01:03:06.828Z,25.40
2023-02-06T01:04:06.786Z,25.50
2023-02-06T01:05:06.777Z,26.60
2023-02-06T01:06:06.827Z,25.30
2023-02-06T01:07:06.755Z,25.50
2023-02-06T01:08:06.756Z,25.20
2023-02-06T01:09:06.751Z,23.90
2023-02-06T01:10:06.732Z,24.90
2023-02-06T01:11:06.715Z,26.70
2023-02-06T01:12:06.707Z,26.50
2023-02-06T01:13:06.711Z,25.60
2023-02-06T01:14:06.715Z,26.40
2023-02-06T01:15:06.677Z,27.80
2023-02-06T01:16:06.709Z,27.70
2023-02-06T01:17:06.665Z,26.40
2023-02-06T01:18:06.662Z,25.50
2023-02-06T01:19:06.629Z,25.50
2023-02-06T01:20:06.638Z,25.30
2023-02-06T01:21:06.608Z,26.50
2023-02-06T01:22:06.596Z,27.40
2023-02-06T01:23:06.593Z,26.60
2023-02-06T01:24:06.596Z,28.00
2023-02-06T01:25:06.602Z,27.30
2023-02-06T01:26:06.552Z,28.00
2023-02-06T01:27:06.569Z,28.10
2023-02-06T01:28:06.604Z,29.10
2023-02-06T01:29:06.542Z,28.10
2023-02-06T01:30:06.531Z,27.90
2023-02-06T01:31:06.528Z,27.30
2023-02-06T01:32:06.516Z,26.90
2023-02-06T01:33:06.498Z,27.70
2023-02-06T01:34:06.485Z,26.90
2023-02-06T01:35:06.495Z,27.80
2023-02-06T01:36:06.466Z,27.60
2023-02-06T01:37:06.453Z,27.70
2023-02-06T01:38:06.448Z,28.20
2023-02-06T01:39:06.469Z,29.20
2023-02-06T01:40:06.417Z,30.00
2023-02-06T01:41:06.417Z,30.50
2023-02-06T01:42:06.392Z,28.30
2023-02-06T01:43:06.385Z,28.20
2023-02-06T01:44:06.389Z,27.50
2023-02-06T01:45:06.376Z,29.60
2023-02-06T01:46:06.353Z,29.20
2023-02-06T01:47:06.345Z,29.90
2023-02-06T01:48:06.345Z,33.10
2023-02-06T01:49:07.104Z,31.10
2023-02-06T01:50:06.327Z,30.40
2023-02-06T01:51:06.319Z,29.40
2023-02-06T01:52:06.326Z,30.20
2023-02-06T01:53:06.296Z,30.70
2023-02-06T01:54:06.314Z,30.10
2023-02-06T01:55:06.289Z,32.60
2023-02-06T01:56:06.264Z,30.80
2023-02-06T01:57:06.275Z,28.90
2023-02-06T01:58:06.234Z,30.00
2023-02-06T01:59:06.248Z,28.50
2023-02-06T02:00:06.269Z,28.90
2023-02-06T02:01:06.261Z,29.10
2023-02-06T02:02:06.255Z,29.30
2023-02-06T02:03:06.189Z,30.70
2023-02-06T02:04:06.190Z,29.90
2023-02-06T02:05:06.194Z,31.20
2023-02-06T02:06:06.160Z,33.70
2023-02-06T02:07:06.165Z,35.20
2023-02-06T02:08:06.134Z,32.20
2023-02-06T02:09:06.125Z,32.40
2023-02-06T02:10:06.108Z,33.40
2023-02-06T02:11:06.098Z,33.20
2023-02-06T02:12:06.099Z,32.20
2023-02-06T02:13:06.084Z,34.40
2023-02-06T02:14:06.097Z,35.30
2023-02-06T02:15:06.060Z,34.10
2023-02-06T02:16:06.081Z,33.60
2023-02-06T02:17:06.050Z,33.70
2023-02-06T02:18:06.046Z,33.30
2023-02-06T02:19:06.045Z,33.10
2023-02-06T02:20:06.022Z,30.10
2023-02-06T02:21:06.001Z,32.20
2023-02-06T02:22:05.997Z,31.70
2023-02-06T02:23:05.996Z,30.90
2023-02-06T02:24:05.986Z,32.00
2023-02-06T02:25:05.982Z,31.80
2023-02-06T02:26:05.959Z,31.00
2023-02-06T02:27:05.937Z,31.60
2023-02-06T02:28:06.008Z,32.10
2023-02-06T02:29:05.937Z,31.00
2023-02-06T02:30:05.916Z,30.40
2023-02-06T02:31:06.015Z,31.80
2023-02-06T02:32:05.891Z,30.00
2023-02-06T02:33:05.894Z,30.90
2023-02-06T02:34:05.894Z,30.30
2023-02-06T02:35:05.879Z,29.40
2023-02-06T02:36:05.868Z,28.60
2023-02-06T02:37:05.839Z,27.60
2023-02-06T02:38:05.832Z,26.80
2023-02-06T02:39:05.831Z,26.30
2023-02-06T02:40:07.916Z,25.70
2023-02-06T02:41:05.796Z,26.70
2023-02-06T02:42:05.807Z,26.60
2023-02-06T02:43:05.778Z,26.20
2023-02-06T02:44:05.790Z,26.10
2023-02-06T02:45:05.762Z,25.50
2023-02-06T02:46:05.817Z,25.00
2023-02-06T02:47:05.736Z,25.20
2023-02-06T02:48:05.749Z,25.70
2023-02-06T02:49:05.753Z,25.70
2023-02-06T02:50:05.714Z,24.00
2023-02-06T02:51:05.722Z,23.50
2023-02-06T02:52:05.688Z,23.30
2023-02-06T02:53:05.667Z,24.10
2023-02-06T02:54:05.693Z,23.40
2023-02-06T02:55:05.668Z,24.10
2023-02-06T02:56:05.638Z,23.50
2023-02-06T02:57:05.631Z,24.20
2023-02-06T02:58:05.669Z,24.00
2023-02-06T02:59:05.631Z,24.00
2023-02-06T03:00:05.609Z,23.40
2023-02-06T03:01:05.622Z,22.80
2023-02-06T03:02:05.645Z,22.70
2023-02-06T03:03:05.598Z,24.00
2023-02-06T03:04:05.592Z,24.20
2023-02-06T03:05:05.545Z,24.10
2023-02-06T03:06:05.541Z,25.10
2023-02-06T03:07:05.539Z,25.90
2023-02-06T03:08:05.522Z,25.20
2023-02-06T03:09:05.546Z,25.80
2023-02-06T03:10:05.499Z,25.60
2023-02-06T03:11:05.522Z,26.50
2023-02-06T03:12:05.479Z,26.30
2023-02-06T03:13:05.466Z,26.00
2023-02-06T03:14:05.478Z,26.20
2023-02-06T03:15:05.533Z,26.10
2023-02-06T03:16:05.480Z,25.70
2023-02-06T03:17:05.426Z,26.20
2023-02-06T03:18:05.425Z,26.30
2023-02-06T03:19:05.442Z,25.40
2023-02-06T03:20:05.432Z,26.40
2023-02-06T03:21:05.521Z,25.30
2023-02-06T03:22:05.380Z,26.00
2023-02-06T03:23:05.419Z,25.20
2023-02-06T03:24:05.392Z,25.00
2023-02-06T03:25:05.402Z,24.30
2023-02-06T03:26:05.345Z,23.90
2023-02-06T03:27:05.327Z,25.00
2023-02-06T03:28:05.395Z,23.90
2023-02-06T03:29:05.345Z,23.70
2023-02-06T03:30:05.314Z,22.20
2023-02-06T03:31:05.299Z,22.40
2023-02-06T03:32:05.304Z,22.60
2023-02-06T03:33:05.264Z,22.40
2023-02-06T03:34:05.294Z,21.30
2023-02-06T03:35:05.253Z,22.20
2023-02-06T03:36:05.265Z,21.80
2023-02-06T03:37:05.242Z,21.10
2023-02-06T03:38:05.228Z,21.20
2023-02-06T03:39:05.241Z,20.80
2023-02-06T03:40:05.218Z,20.60
2023-02-06T03:41:05.188Z,19.70
2023-02-06T03:42:05.205Z,20.70
2023-02-06T03:43:05.173Z,20.20
2023-02-06T03:44:05.179Z,20.70
2023-02-06T03:45:05.160Z,20.40
2023-02-06T03:46:05.200Z,19.30
2023-02-06T03:47:05.127Z,20.20
2023-02-06T03:48:05.124Z,20.20
2023-02-06T03:49:05.139Z,19.50
2023-02-06T03:50:05.180Z,20.50
2023-02-06T03:51:05.099Z,20.30
2023-02-06T03:52:05.085Z,20.20
2023-02-06T03:53:05.073Z,19.80
2023-02-06T03:54:05.101Z,20.50
2023-02-06T03:55:05.072Z,19.50
2023-02-06T03:56:05.045Z,19.40
2023-02-06T03:57:05.048Z,20.20
2023-02-06T03:58:05.027Z,20.70
2023-02-06T03:59:05.029Z,20.00
2023-02-06T04:00:05.008Z,20.20
2023-02-06T04:01:05.094Z,20.50
2023-02-06T04:02:05.046Z,20.40
2023-02-06T04:03:05.027Z,20.70
2023-02-06T04:04:04.998Z,21.30
2023-02-06T04:05:05.016Z,21.70
2023-02-06T04:06:04.949Z,21.30
2023-02-06T04:07:04.936Z,21.90
2023-02-06T04:08:04.940Z,21.30
2023-02-06T04:09:04.928Z,22.80
2023-02-06T04:10:04.917Z,22.50
2023-02-06T04:11:04.898Z,22.60
2023-02-06T04:12:04.973Z,22.50
2023-02-06T04:13:04.881Z,22.60
2023-02-06T04:14:04.887Z,23.30
2023-02-06T04:15:04.868Z,22.50
2023-02-06T04:16:04.864Z,23.10
2023-02-06T04:17:04.840Z,23.10
2023-02-06T04:18:06.107Z,24.00
2023-02-06T04:19:04.837Z,23.60
2023-02-06T04:20:04.837Z,23.40
2023-02-06T04:21:04.808Z,23.10
2023-02-06T04:22:04.817Z,23.40
2023-02-06T04:23:04.782Z,23.50
2023-02-06T04:24:04.797Z,24.30
2023-02-06T04:25:04.806Z,24.70
2023-02-06T04:26:04.758Z,24.70
2023-02-06T04:27:04.747Z,24.30
2023-02-06T04:28:04.818Z,24.70
2023-02-06T04:29:04.734Z,24.70
2023-02-06T04:30:04.716Z,24.50
2023-02-06T04:31:04.765Z,25.40
2023-02-06T04:32:04.718Z,25.70
2023-02-06T04:33:04.695Z,25.20
2023-02-06T04:34:04.671Z,25.00
2023-02-06T04:35:04.772Z,25.80
2023-02-06T04:36:04.670Z,26.00
2023-02-06T04:37:04.632Z,25.10
2023-02-06T04:38:04.629Z,26.50
2023-02-06T04:39:04.614Z,25.20
2023-02-06T04:40:04.620Z,25.30
2023-02-06T04:41:04.594Z,25.40
2023-02-06T04:42:04.590Z,23.60
2023-02-06T04:43:04.573Z,25.20
2023-02-06T04:44:04.575Z,25.80
2023-02-06T04:45:04.594Z,23.80
2023-02-06T04:46:04.550Z,25.10
2023-02-06T04:47:04.549Z,24.70
2023-02-06T04:48:04.536Z,25.00
2023-02-06T04:49:04.513Z,24.60
2023-02-06T04:50:04.520Z,24.30
2023-02-06T04:51:04.497Z,24.90
2023-02-06T04:52:04.506Z,24.30
2023-02-06T04:53:04.535Z,24.20
2023-02-06T04:54:04.481Z,25.10
2023-02-06T04:55:04.469Z,24.80
2023-02-06T04:56:04.466Z,24.80
2023-02-06T04:57:04.448Z,26.10
2023-02-06T04:58:04.430Z,25.30
2023-02-06T04:59:04.421Z,26.10
2023-02-06T05:00:04.420Z,24.80
2023-02-06T05:01:04.390Z,26.50
2023-02-06T05:02:04.387Z,26.00
2023-02-06T05:03:04.377Z,25.80
2023-02-06T05:04:04.378Z,25.10
2023-02-06T05:05:04.364Z,25.40
2023-02-06T05:06:04.345Z,25.30
2023-02-06T05:07:05.572Z,25.60
2023-02-06T05:08:04.365Z,25.50
2023-02-06T05:09:04.311Z,25.30
2023-02-06T05:10:04.315Z,25.80
2023-02-06T05:11:04.290Z,25.80
2023-02-06T05:12:04.319Z,25.80
2023-02-06T05:13:04.264Z,25.60
2023-02-06T05:14:04.262Z,27.20
2023-02-06T05:15:04.274Z,26.70
2023-02-06T05:16:10.269Z,25.80
2023-02-06T05:17:04.213Z,27.40
2023-02-06T05:18:04.217Z,26.50
2023-02-06T05:19:04.200Z,25.70
2023-02-06T05:20:04.208Z,25.70
2023-02-06T05:21:04.191Z,27.20
2023-02-06T05:22:04.172Z,26.40
2023-02-06T05:23:04.158Z,26.50
2023-02-06T05:24:04.163Z,25.90
2023-02-06T05:25:04.159Z,25.40
2023-02-06T05:26:04.132Z,26.90
2023-02-06T05:27:04.125Z,26.90
2023-02-06T05:28:04.145Z,26.10
2023-02-06T05:29:04.110Z,26.40
2023-02-06T05:30:04.113Z,27.10
2023-02-06T05:31:04.241Z,26.90
2023-02-06T05:32:04.066Z,27.00
2023-02-06T05:33:04.081Z,26.70
2023-02-06T05:34:04.045Z,26.70
2023-02-06T05:35:04.058Z,27.40
2023-02-06T05:36:04.036Z,28.30
2023-02-06T05:37:04.029Z,27.00
2023-02-06T05:38:04.012Z,28.90
2023-02-06T05:39:03.995Z,27.40
2023-02-06T05:40:03.999Z,27.10
2023-02-06T05:41:03.981Z,27.50
2023-02-06T05:42:03.971Z,28.40
2023-02-06T05:43:03.953Z,28.60
2023-02-06T05:44:03.945Z,28.60
2023-02-06T05:45:03.953Z,28.50
2023-02-06T05:46:03.944Z,27.00
2023-02-06T05:47:03.925Z,29.20
2023-02-06T05:48:03.904Z,27.70
2023-02-06T05:49:03.894Z,28.40
2023-02-06T05:50:03.914Z,28.20
2023-02-06T05:51:03.879Z,27.90
2023-02-06T05:52:03.868Z,27.30
2023-02-06T05:53:03.907Z,28.20
2023-02-06T05:54:03.877Z,27.60
2023-02-06T05:55:03.847Z,28.10
2023-02-06T05:56:03.824Z,27.90
2023-02-06T05:57:03.816Z,28.10
2023-02-06T05:58:06.115Z,28.50
2023-02-06T05:59:03.792Z,29.60
2023-02-06T06:00:03.807Z,28.90
2023-02-06T06:01:03.778Z,26.10
2023-02-06T06:02:03.765Z,27.90
2023-02-06T06:03:03.785Z,28.90
2023-02-06T06:04:03.838Z,27.70
2023-02-06T06:05:03.828Z,28.90
2023-02-06T06:06:03.744Z,28.00
2023-02-06T06:07:03.715Z,28.30
2023-02-06T06:08:03.708Z,27.50
2023-02-06T06:09:03.694Z,27.40
2023-02-06T06:10:03.705Z,26.10
2023-02-06T06:11:03.694Z,26.50
2023-02-06T06:12:03.673Z,26.30
2023-02-06T06:13:03.656Z,26.10
2023-02-06T06:14:03.642Z,26.80
2023-02-06T06:15:03.655Z,25.50
2023-02-06T06:16:03.658Z,26.30
2023-02-06T06:17:03.627Z,24.10
2023-02-06T06:18:03.551Z,25.30
2023-02-06T06:19:03.596Z,25.60
2023-02-06T06:20:03.553Z,24.50
2023-02-06T06:21:03.522Z,26.10
2023-02-06T06:22:03.528Z,24.10
2023-02-06T06:23:03.516Z,25.20
2023-02-06T06:24:03.490Z,25.20
2023-02-06T06:25:03.500Z,23.50
2023-02-06T06:26:03.484Z,22.50
2023-02-06T06:27:03.462Z,22.90
2023-02-06T06:28:03.495Z,23.70
2023-02-06T06:29:03.455Z,23.70
2023-02-06T06:30:03.452Z,23.60
2023-02-06T06:31:03.520Z,22.70
2023-02-06T06:32:03.413Z,23.10
2023-02-06T06:33:03.407Z,23.40
2023-02-06T06:34:03.390Z,23.40
2023-02-06T06:35:03.394Z,23.40
2023-02-06T06:36:03.366Z,24.40
2023-02-06T06:37:03.366Z,24.40
2023-02-06T06:38:03.365Z,25.00
2023-02-06T06:39:03.335Z,23.80
2023-02-06T06:40:03.338Z,25.40
2023-02-06T06:41:03.318Z,24.30
2023-02-06T06:42:03.299Z,24.60
2023-02-06T06:43:03.298Z,24.40
2023-02-06T06:44:03.286Z,24.50
2023-02-06T06:45:03.295Z,23.60
2023-02-06T06:46:03.271Z,24.10
2023-02-06T06:47:03.260Z,24.10
2023-02-06T06:48:03.239Z,24.70
2023-02-06T06:49:03.257Z,23.40
2023-02-06T06:50:03.249Z,23.80
2023-02-06T06:51:03.218Z,24.10
2023-02-06T06:52:04.494Z,23.40
2023-02-06T06:53:03.204Z,24.90
2023-02-06T06:54:03.180Z,23.20
2023-02-06T06:55:03.193Z,24.10
2023-02-06T06:56:03.160Z,23.70
2023-02-06T06:57:03.174Z,22.70
2023-02-06T06:58:03.146Z,22.90
2023-02-06T06:59:03.129Z,21.90
2023-02-06T07:00:03.144Z,22.90
2023-02-06T07:01:03.134Z,22.10
2023-02-06T07:02:03.109Z,21.50
2023-02-06T07:03:03.161Z,22.40
2023-02-06T07:04:03.084Z,21.80
2023-02-06T07:05:03.095Z,21.20
2023-02-06T07:06:03.071Z,21.00
2023-02-06T07:07:03.121Z,21.90
2023-02-06T07:08:03.041Z,21.40
2023-02-06T07:09:03.037Z,21.20
2023-02-06T07:10:03.044Z,20.40
2023-02-06T07:11:03.020Z,21.10
2023-02-06T07:12:03.004Z,21.70
2023-02-06T07:13:02.992Z,20.30
2023-02-06T07:14:02.976Z,20.80
2023-02-06T07:15:02.994Z,20.60
2023-02-06T07:16:03.023Z,21.80
2023-02-06T07:17:02.960Z,22.00
2023-02-06T07:18:02.941Z,21.90
2023-02-06T07:19:02.942Z,22.20
2023-02-06T07:20:02.952Z,21.30
2023-02-06T07:21:02.914Z,22.00
2023-02-06T07:22:02.918Z,20.40
2023-02-06T07:23:02.900Z,21.50
2023-02-06T07:24:02.883Z,20.90
2023-02-06T07:25:02.900Z,21.10
2023-02-06T07:26:02.858Z,21.50
2023-02-06T07:27:02.854Z,22.10
2023-02-06T07:28:02.895Z,21.50
2023-02-06T07:29:02.848Z,21.00
2023-02-06T07:30:04.978Z,21.30
2023-02-06T07:31:02.852Z,22.00
2023-02-06T07:32:02.810Z,21.50
2023-02-06T07:33:02.808Z,22.60
2023-02-06T07:34:02.789Z,23.20
2023-02-06T07:35:02.832Z,23.10
2023-02-06T07:36:04.179Z,22.10
2023-02-06T07:37:02.768Z,21.70
2023-02-06T07:38:02.749Z,22.20
2023-02-06T07:39:02.739Z,22.80
2023-02-06T07:40:02.757Z,23.00
2023-02-06T07:41:02.817Z,23.20
2023-02-06T07:42:02.706Z,23.30
2023-02-06T07:43:02.701Z,22.60
2023-02-06T07:44:02.694Z,21.70
2023-02-06T07:45:02.701Z,22.10
2023-02-06T07:46:02.737Z,23.30
2023-02-06T07:47:02.670Z,22.10
2023-02-06T07:48:02.639Z,22.40
2023-02-06T07:49:02.654Z,22.40
2023-02-06T07:50:02.636Z,22.90
2023-02-06T07:51:02.622Z,22.80
2023-02-06T07:52:02.603Z,22.50
2023-02-06T07:53:02.601Z,23.10
2023-02-06T07:54:02.579Z,23.00
2023-02-06T07:55:02.611Z,23.40
2023-02-06T07:56:02.568Z,23.90
2023-02-06T07:57:02.558Z,23.30
2023-02-06T07:58:02.543Z,23.90
2023-02-06T07:59:02.531Z,23.40
2023-02-06T08:00:02.574Z,23.00
2023-02-06T08:01:02.552Z,22.80
2023-02-06T08:02:02.506Z,22.20
2023-02-06T08:03:02.495Z,22.00
2023-02-06T08:04:02.554Z,22.50
2023-02-06T08:05:02.488Z,22.40
2023-02-06T08:06:02.455Z,22.50
2023-02-06T08:07:02.454Z,22.40
2023-02-06T08:08:02.438Z,21.80
2023-02-06T08:09:02.446Z,21.90
2023-02-06T08:10:02.430Z,22.00
2023-02-06T08:11:02.426Z,22.10
2023-02-06T08:12:02.416Z,22.10
2023-02-06T08:13:02.389Z,21.70
2023-02-06T08:14:02.377Z,21.80
2023-02-06T08:15:02.391Z,22.00
2023-02-06T08:16:02.374Z,21.50
2023-02-06T08:17:02.409Z,22.50
2023-02-06T08:18:02.344Z,21.50
2023-02-06T08:19:02.334Z,21.20
2023-02-06T08:20:02.343Z,23.10
2023-02-06T08:21:02.315Z,23.00
2023-02-06T08:22:02.307Z,23.10
2023-02-06T08:23:02.295Z,23.00
2023-02-06T08:24:02.280Z,23.40
2023-02-06T08:25:02.288Z,22.70
2023-02-06T08:26:02.263Z,24.00
2023-02-06T08:27:02.256Z,24.60
2023-02-06T08:28:02.372Z,24.00
2023-02-06T08:29:02.254Z,24.30
2023-02-06T08:30:02.239Z,25.80
2023-02-06T08:31:02.326Z,26.60
2023-02-06T08:32:02.192Z,27.10
2023-02-06T08:33:02.198Z,26.40
2023-02-06T08:34:02.181Z,26.50
2023-02-06T08:35:02.188Z,26.50
2023-02-06T08:36:02.158Z,27.90
2023-02-06T08:37:02.155Z,30.40
2023-02-06T08:38:02.158Z,28.50
2023-02-06T08:39:02.129Z,33.60
2023-02-06T08:40:02.126Z,33.60
2023-02-06T08:41:02.125Z,31.70
2023-02-06T08:42:02.097Z,29.60
2023-02-06T08:43:02.089Z,29.20
2023-02-06T08:44:02.084Z,30.10
2023-02-06T08:45:02.066Z,32.70
2023-02-06T08:46:02.091Z,33.20
2023-02-06T08:47:10.143Z,31.20
2023-02-06T08:48:02.050Z,37.70
2023-02-06T08:49:02.037Z,32.10
2023-02-06T08:50:03.554Z,33.00
2023-02-06T08:51:02.034Z,32.20
2023-02-06T08:52:01.993Z,32.90
2023-02-06T08:53:02.004Z,34.00
2023-02-06T08:54:01.978Z,32.40
2023-02-06T08:55:01.996Z,32.00
2023-02-06T08:56:01.967Z,32.60
2023-02-06T08:57:01.949Z,34.00
2023-02-06T08:58:01.936Z,31.40
2023-02-06T08:59:01.933Z,29.50
2023-02-06T09:00:01.916Z,36.30
2023-02-06T09:01:01.975Z,36.40
2023-02-06T09:02:01.885Z,46.90
2023-02-06T09:03:01.881Z,35.50
2023-02-06T09:04:01.868Z,33.60
2023-02-06T09:05:01.868Z,36.40
2023-02-06T09:06:09.383Z,35.40
2023-02-06T09:07:01.853Z,41.50
2023-02-06T09:08:01.824Z,43.20
2023-02-06T09:09:01.821Z,44.60
2023-02-06T09:10:01.814Z,34.70
2023-02-06T09:11:01.814Z,57.40
2023-02-06T09:12:01.787Z,48.30
2023-02-06T09:13:01.783Z,31.50
2023-02-06T09:14:01.770Z,25.90
2023-02-06T09:15:01.775Z,28.20
2023-02-06T09:16:01.852Z,26.40
2023-02-06T09:17:01.740Z,25.50
2023-02-06T09:18:01.726Z,20.30
2023-02-06T09:19:01.730Z,21.70
2023-02-06T09:20:01.704Z,21.40
2023-02-06T09:21:01.719Z,21.90
2023-02-06T09:22:01.676Z,23.20
2023-02-06T09:23:01.675Z,22.50
2023-02-06T09:24:01.667Z,21.10
2023-02-06T09:25:01.660Z,20.50
2023-02-06T09:26:01.667Z,20.70
2023-02-06T09:27:01.634Z,21.80
2023-02-06T09:28:01.673Z,22.90
2023-02-06T09:29:01.617Z,20.80
2023-02-06T09:30:01.607Z,18.10
2023-02-06T09:31:01.709Z,18.00
2023-02-06T09:32:01.571Z,17.40
2023-02-06T09:33:01.574Z,20.50
2023-02-06T09:34:01.563Z,19.90
2023-02-06T09:35:01.579Z,19.60
2023-02-06T09:36:01.554Z,19.20
2023-02-06T09:37:01.530Z,19.20
2023-02-06T09:38:01.516Z,17.00
2023-02-06T09:39:01.540Z,18.70
2023-02-06T09:40:01.498Z,18.50
2023-02-06T09:41:01.504Z,16.00
2023-02-06T09:42:01.470Z,14.60
2023-02-06T09:43:01.483Z,14.80
2023-02-06T09:44:01.474Z,16.40
2023-02-06T09:45:01.456Z,15.70
2023-02-06T09:46:01.513Z,15.90
2023-02-06T09:47:01.427Z,14.90
2023-02-06T09:48:01.457Z,15.80
2023-02-06T09:49:01.404Z,15.90
2023-02-06T09:50:01.395Z,14.80
2023-02-06T09:51:01.405Z,15.90
2023-02-06T09:52:01.378Z,16.00
2023-02-06T09:53:01.369Z,16.30
2023-02-06T09:54:01.354Z,17.80
2023-02-06T09:55:01.344Z,19.00
2023-02-06T09:56:01.350Z,17.20
2023-02-06T09:57:01.333Z,24.40
2023-02-06T09:58:01.309Z,22.10
2023-02-06T09:59:01.316Z,17.70
2023-02-06T10:00:01.310Z,17.90
2023-02-06T10:01:01.314Z,18.10
2023-02-06T10:02:01.271Z,16.40
2023-02-06T10:03:01.264Z,14.10
2023-02-06T10:04:01.264Z,14.60
2023-02-06T10:05:01.246Z,15.10
2023-02-06T10:06:01.243Z,15.70
2023-02-06T10:07:01.231Z,20.10
2023-02-06T10:08:01.218Z,17.20
2023-02-06T10:09:01.200Z,15.20
2023-02-06T10:10:01.185Z,16.30
2023-02-06T10:11:01.198Z,16.20
2023-02-06T10:12:01.163Z,14.60
2023-02-06T10:13:01.157Z,14.00
2023-02-06T10:14:01.142Z,15.60
2023-02-06T10:15:01.139Z,12.40
2023-02-06T10:16:01.225Z,14.50
2023-02-06T10:17:01.214Z,12.80
2023-02-06T10:18:01.101Z,11.80
2023-02-06T10:19:01.104Z,13.40
2023-02-06T10:20:01.229Z,15.30
2023-02-06T10:21:01.106Z,15.10
2023-02-06T10:22:01.078Z,12.30
2023-02-06T10:23:01.057Z,13.40
2023-02-06T10:24:01.046Z,12.70
2023-02-06T10:25:01.038Z,13.10
2023-02-06T10:26:01.028Z,12.70
2023-02-06T10:27:01.040Z,13.50
2023-02-06T10:28:01.018Z,14.10
2023-02-06T10:29:00.997Z,13.30
2023-02-06T10:30:00.982Z,11.50
2023-02-06T10:31:01.109Z,11.80
2023-02-06T10:32:01.007Z,12.10
2023-02-06T10:33:00.952Z,13.40
2023-02-06T10:34:00.950Z,11.70
2023-02-06T10:35:00.930Z,11.00
2023-02-06T10:36:00.922Z,13.00
2023-02-06T10:37:00.926Z,14.20
2023-02-06T10:38:00.903Z,11.40
2023-02-06T10:39:00.888Z,10.50
2023-02-06T10:40:00.879Z,12.30
2023-02-06T10:41:00.867Z,10.70
2023-02-06T10:42:00.873Z,10.50
2023-02-06T10:43:00.851Z,11.10
2023-02-06T10:44:00.845Z,11.50
2023-02-06T10:45:17.031Z,11.50
2023-02-06T10:46:00.828Z,11.00
2023-02-06T10:47:00.935Z,9.80
2023-02-06T10:48:00.808Z,10.30
2023-02-06T10:49:00.812Z,9.70
2023-02-06T10:50:00.781Z,12.00
2023-02-06T10:51:00.763Z,11.90
2023-02-06T10:52:00.778Z,10.90
2023-02-06T10:53:00.747Z,9.50
2023-02-06T10:54:00.747Z,10.00
2023-02-06T10:55:00.727Z,10.00
2023-02-06T10:56:00.718Z,9.50
2023-02-06T10:57:00.731Z,10.20
2023-02-06T10:58:00.698Z,9.50
2023-02-06T10:59:00.699Z,8.40
2023-02-06T11:00:00.700Z,8.80
2023-02-06T11:01:00.767Z,10.00
2023-02-06T11:02:00.828Z,9.80
2023-02-06T11:03:07.534Z,8.90
2023-02-06T11:04:00.641Z,8.60
2023-02-06T11:05:00.617Z,8.50
2023-02-06T11:06:00.610Z,8.40
2023-02-06T11:07:00.611Z,8.30
2023-02-06T11:08:00.588Z,8.80
2023-02-06T11:09:00.572Z,9.00
2023-02-06T11:10:00.570Z,8.40
2023-02-06T11:11:00.549Z,8.50
2023-02-06T11:12:00.572Z,8.30
2023-02-06T11:13:00.534Z,7.70
2023-02-06T11:14:00.537Z,7.40
2023-02-06T11:15:00.532Z,7.30
2023-02-06T11:16:00.580Z,7.70
2023-02-06T11:17:00.521Z,7.20
2023-02-06T11:18:00.485Z,7.10
2023-02-06T11:19:06.512Z,7.50
2023-02-06T11:20:01.188Z,7.40
2023-02-06T11:21:00.456Z,7.70
2023-02-06T11:22:01.190Z,7.80
2023-02-06T11:23:00.429Z,8.10
2023-02-06T11:24:00.434Z,7.60
2023-02-06T11:25:00.403Z,8.00
2023-02-06T11:26:00.400Z,7.80
2023-02-06T11:27:00.432Z,8.00
2023-02-06T11:28:00.432Z,7.00
2023-02-06T11:29:00.364Z,7.50
2023-02-06T11:30:00.395Z,7.80
2023-02-06T11:31:00.415Z,8.30
2023-02-06T11:32:00.377Z,8.00
2023-02-06T11:33:04.702Z,8.20
2023-02-06T11:34:00.314Z,7.90
2023-02-06T11:35:00.317Z,8.60
2023-02-06T11:36:00.302Z,8.60
2023-02-06T11:37:00.298Z,9.30
2023-02-06T11:38:00.281Z,9.50
2023-02-06T11:39:00.278Z,9.00
2023-02-06T11:40:00.253Z,9.10
2023-02-06T11:41:00.238Z,9.90
2023-02-06T11:42:00.242Z,8.90
2023-02-06T11:43:00.288Z,9.90
2023-02-06T11:44:00.219Z,9.70
2023-02-06T11:45:00.201Z,10.30
2023-02-06T11:46:00.262Z,10.00
2023-02-06T11:47:00.191Z,10.50
2023-02-06T11:48:00.172Z,11.00
2023-02-06T11:49:00.150Z,11.00
2023-02-06T11:50:00.144Z,10.30
2023-02-06T11:51:00.129Z,10.40
2023-02-06T11:52:00.143Z,10.60
2023-02-06T11:53:00.122Z,10.60
2023-02-06T11:54:00.118Z,10.80
2023-02-06T11:55:00.102Z,10.30
2023-02-06T11:56:00.099Z,11.70
2023-02-06T11:57:00.110Z,13.30
2023-02-06T11:58:00.088Z,12.40
2023-02-06T11:59:00.059Z,11.00
2023-02-06T12:00:00.048Z,12.80
2023-02-06T12:01:00.047Z,12.40
2023-02-06T12:02:00.056Z,13.20
2023-02-06T12:03:00.009Z,13.40
2023-02-06T12:04:00.018Z,12.80
2023-02-06T12:04:59.989Z,12.30
2023-02-06T12:06:02.858Z,10.90
2023-02-06T12:06:59.970Z,10.70
2023-02-06T12:07:59.995Z,11.90
2023-02-06T12:08:59.956Z,12.00
2023-02-06T12:09:59.944Z,11.50
2023-02-06T12:10:59.917Z,12.60
2023-02-06T12:11:59.951Z,11.70
2023-02-06T12:12:59.953Z,11.90
2023-02-06T12:13:59.892Z,12.40
2023-02-06T12:15:00.130Z,11.90
2023-02-06T12:15:59.876Z,11.70
2023-02-06T12:16:59.871Z,11.80
2023-02-06T12:17:59.861Z,11.70
2023-02-06T12:18:59.840Z,12.00
2023-02-06T12:19:59.837Z,12.70
2023-02-06T12:20:59.815Z,11.90
2023-02-06T12:21:59.891Z,12.40
2023-02-06T12:22:59.822Z,11.60
2023-02-06T12:23:59.792Z,11.80
2023-02-06T12:24:59.777Z,11.60
2023-02-06T12:25:59.797Z,11.00
2023-02-06T12:26:59.779Z,11.20
2023-02-06T12:27:59.797Z,11.40
2023-02-06T12:28:59.729Z,11.10
2023-02-06T12:29:59.715Z,12.70
2023-02-06T12:30:59.792Z,13.20
2023-02-06T12:31:59.836Z,13.70
2023-02-06T12:32:59.684Z,14.00
2023-02-06T12:33:59.675Z,13.70
2023-02-06T12:34:59.660Z,13.80
2023-02-06T12:35:59.657Z,13.30
2023-02-06T12:36:59.648Z,14.10
2023-02-06T12:37:59.634Z,13.30
2023-02-06T12:38:59.621Z,14.30
2023-02-06T12:39:59.639Z,14.50
2023-02-06T12:40:59.607Z,13.60
2023-02-06T12:41:59.611Z,13.80
2023-02-06T12:42:59.615Z,13.40
2023-02-06T12:43:59.567Z,13.20
2023-02-06T12:44:59.556Z,13.70
2023-02-06T12:45:59.656Z,14.70
2023-02-06T12:46:59.560Z,14.20
2023-02-06T12:47:59.532Z,14.50
2023-02-06T12:48:59.554Z,15.50
2023-02-06T12:49:59.509Z,14.70
2023-02-06T12:50:59.495Z,15.00
2023-02-06T12:51:59.504Z,14.80
2023-02-06T12:52:59.479Z,14.50
2023-02-06T12:53:59.471Z,14.50